sensor_id;sensor_type;location;lat;lon;timestamp;temperature;humidity
7016;DHT22;3548;48.402;9.990;2023-08-01T00:00:00;18.40;99.90
7016;DHT22;3548;48.402;9.990;2023-08-01T00:02:26;18.30;99.90
7016;DHT22;3548;48.402;9.990;2023-08-01T00:04:51;18.30;99.90
7016;DHT22;3548;48.402;9.990;2023-08-01T00:07:17;18.30;99.90
7016;DHT22;3548;48.402;9.990;2023-08-01T00:09:42;18.20;99.90
7016;DHT22;3548;48.402;9.990;2023-08-01T00:12:08;18.20;99.90
7016;DHT22;3548;48.402;9.990;2023-08-01T00:14:33;18.10;99.90
7016;DHT22;3548;48.402;9.990;2023-08-01T00:16:59;18.10;99.90
7016;DHT22;3548;48.402;9.990;2023-08-01T00:19:24;18.10;99.90
7016;DHT22;3548;48.402;9.990;2023-08-01T00:21:50;18.00;99.90
7016;DHT22;3548;48.402;9.990;2023-08-01T00:24:15;18.00;99.90
7016;DHT22;3548;48.402;9.990;2023-08-01T00:26:41;18.00;99.90
7016;DHT22;3548;48.402;9.990;2023-08-01T00:29:07;18.00;99.90
7016;DHT22;3548;48.402;9.990;2023-08-01T00:31:32;18.00;99.90
7016;DHT22;3548;48.402;9.990;2023-08-01T00:33:58;18.00;99.90
7016;DHT22;3548;48.402;9.990;2023-08-01T00:36:23;18.00;99.90
7016;DHT22;3548;48.402;9.990;2023-08-01T00:38:49;18.00;99.90
7016;DHT22;3548;48.402;9.990;2023-08-01T00:41:16;18.00;99.90
7016;DHT22;3548;48.402;9.990;2023-08-01T00:43:41;18.10;99.90
7016;DHT22;3548;48.402;9.990;2023-08-01T00:46:09;18.00;99.90
7016;DHT22;3548;48.402;9.990;2023-08-01T00:48:35;18.00;99.90
7016;DHT22;3548;48.402;9.990;2023-08-01T00:51:04;18.10;99.90
7016;DHT22;3548;48.402;9.990;2023-08-01T00:53:31;18.10;99.90
7016;DHT22;3548;48.402;9.990;2023-08-01T00:55:57;18.10;99.90
7016;DHT22;3548;48.402;9.990;2023-08-01T00:58:23;18.00;99.90
7016;DHT22;3548;48.402;9.990;2023-08-01T01:00:49;18.00;99.90
7016;DHT22;3548;48.402;9.990;2023-08-01T01:03:15;18.00;99.90
7016;DHT22;3548;48.402;9.990;2023-08-01T01:05:49;18.00;99.90
7016;DHT22;3548;48.402;9.990;2023-08-01T01:08:19;18.00;99.90
7016;DHT22;3548;48.402;9.990;2023-08-01T01:10:45;18.00;99.90
7016;DHT22;3548;48.402;9.990;2023-08-01T01:13:10;18.00;99.90
7016;DHT22;3548;48.402;9.990;2023-08-01T01:15:36;18.00;99.90
7016;DHT22;3548;48.402;9.990;2023-08-01T01:18:01;18.00;99.90
7016;DHT22;3548;48.402;9.990;2023-08-01T01:20:33;17.90;99.90
7016;DHT22;3548;48.402;9.990;2023-08-01T01:23:00;17.90;99.90
7016;DHT22;3548;48.402;9.990;2023-08-01T01:25:27;17.90;99.90
7016;DHT22;3548;48.402;9.990;2023-08-01T01:27:53;18.00;99.90
7016;DHT22;3548;48.402;9.990;2023-08-01T01:30:20;17.90;99.90
7016;DHT22;3548;48.402;9.990;2023-08-01T01:32:46;17.90;99.90
7016;DHT22;3548;48.402;9.990;2023-08-01T01:35:12;17.90;99.90
7016;DHT22;3548;48.402;9.990;2023-08-01T01:37:37;17.90;99.90
7016;DHT22;3548;48.402;9.990;2023-08-01T01:40:03;17.90;99.90
7016;DHT22;3548;48.402;9.990;2023-08-01T01:42:29;17.90;99.90
7016;DHT22;3548;48.402;9.990;2023-08-01T01:44:54;17.90;99.90
7016;DHT22;3548;48.402;9.990;2023-08-01T01:47:20;17.90;99.90
7016;DHT22;3548;48.402;9.990;2023-08-01T01:49:46;17.90;99.90
7016;DHT22;3548;48.402;9.990;2023-08-01T01:52:11;17.90;99.90
7016;DHT22;3548;48.402;9.990;2023-08-01T01:54:37;17.80;99.90
7016;DHT22;3548;48.402;9.990;2023-08-01T01:57:02;17.90;99.90
7016;DHT22;3548;48.402;9.990;2023-08-01T01:59:28;17.90;99.90
7016;DHT22;3548;48.402;9.990;2023-08-01T02:01:53;17.90;99.90
7016;DHT22;3548;48.402;9.990;2023-08-01T02:04:19;17.90;99.90
7016;DHT22;3548;48.402;9.990;2023-08-01T02:06:45;17.80;99.90
7016;DHT22;3548;48.402;9.990;2023-08-01T02:09:10;17.80;99.90
7016;DHT22;3548;48.402;9.990;2023-08-01T02:11:36;17.70;99.90
7016;DHT22;3548;48.402;9.990;2023-08-01T02:14:02;17.60;99.90
7016;DHT22;3548;48.402;9.990;2023-08-01T02:16:28;17.60;99.90
7016;DHT22;3548;48.402;9.990;2023-08-01T02:18:54;17.50;99.90
7016;DHT22;3548;48.402;9.990;2023-08-01T02:21:19;17.50;99.90
7016;DHT22;3548;48.402;9.990;2023-08-01T02:23:45;17.40;99.90
7016;DHT22;3548;48.402;9.990;2023-08-01T02:26:10;17.40;99.90
7016;DHT22;3548;48.402;9.990;2023-08-01T02:28:36;17.40;99.90
7016;DHT22;3548;48.402;9.990;2023-08-01T02:31:01;17.30;99.90
7016;DHT22;3548;48.402;9.990;2023-08-01T02:33:27;17.30;99.90
7016;DHT22;3548;48.402;9.990;2023-08-01T02:35:53;17.30;99.90
7016;DHT22;3548;48.402;9.990;2023-08-01T02:38:18;17.20;99.90
7016;DHT22;3548;48.402;9.990;2023-08-01T02:40:44;17.20;99.90
7016;DHT22;3548;48.402;9.990;2023-08-01T02:43:09;17.20;99.90
7016;DHT22;3548;48.402;9.990;2023-08-01T02:45:35;17.20;99.90
7016;DHT22;3548;48.402;9.990;2023-08-01T02:48:00;17.20;99.90
7016;DHT22;3548;48.402;9.990;2023-08-01T02:50:26;17.10;99.90
7016;DHT22;3548;48.402;9.990;2023-08-01T02:52:51;17.10;99.90
7016;DHT22;3548;48.402;9.990;2023-08-01T02:55:17;17.10;99.90
7016;DHT22;3548;48.402;9.990;2023-08-01T02:57:43;17.00;99.90
7016;DHT22;3548;48.402;9.990;2023-08-01T03:00:08;17.10;99.90
7016;DHT22;3548;48.402;9.990;2023-08-01T03:02:37;17.00;99.90
7016;DHT22;3548;48.402;9.990;2023-08-01T03:05:05;17.00;99.90
7016;DHT22;3548;48.402;9.990;2023-08-01T03:07:31;16.90;99.90
7016;DHT22;3548;48.402;9.990;2023-08-01T03:09:56;16.90;99.90
7016;DHT22;3548;48.402;9.990;2023-08-01T03:12:22;16.80;99.90
7016;DHT22;3548;48.402;9.990;2023-08-01T03:14:48;16.80;99.90
7016;DHT22;3548;48.402;9.990;2023-08-01T03:17:13;16.70;99.90
7016;DHT22;3548;48.402;9.990;2023-08-01T03:19:39;16.70;99.90
7016;DHT22;3548;48.402;9.990;2023-08-01T03:22:06;16.70;99.90
7016;DHT22;3548;48.402;9.990;2023-08-01T03:24:32;16.60;99.90
7016;DHT22;3548;48.402;9.990;2023-08-01T03:26:58;16.60;99.90
7016;DHT22;3548;48.402;9.990;2023-08-01T03:29:24;16.60;99.90
7016;DHT22;3548;48.402;9.990;2023-08-01T03:31:49;16.60;99.90
7016;DHT22;3548;48.402;9.990;2023-08-01T03:34:15;16.50;99.90
7016;DHT22;3548;48.402;9.990;2023-08-01T03:36:40;16.50;99.90
7016;DHT22;3548;48.402;9.990;2023-08-01T03:39:06;16.50;99.90
7016;DHT22;3548;48.402;9.990;2023-08-01T03:41:32;16.50;99.90
7016;DHT22;3548;48.402;9.990;2023-08-01T03:43:58;16.50;99.90
7016;DHT22;3548;48.402;9.990;2023-08-01T03:46:23;16.50;99.90
7016;DHT22;3548;48.402;9.990;2023-08-01T03:48:49;16.50;99.90
7016;DHT22;3548;48.402;9.990;2023-08-01T03:51:15;16.50;99.90
7016;DHT22;3548;48.402;9.990;2023-08-01T03:53:41;16.50;99.90
7016;DHT22;3548;48.402;9.990;2023-08-01T03:56:07;16.50;99.90
7016;DHT22;3548;48.402;9.990;2023-08-01T03:58:33;16.50;99.90
7016;DHT22;3548;48.402;9.990;2023-08-01T04:00:58;16.50;99.90
7016;DHT22;3548;48.402;9.990;2023-08-01T04:03:24;16.50;99.90
7016;DHT22;3548;48.402;9.990;2023-08-01T04:05:50;16.50;99.90
7016;DHT22;3548;48.402;9.990;2023-08-01T04:08:15;16.50;99.90
7016;DHT22;3548;48.402;9.990;2023-08-01T04:10:41;16.50;99.90
7016;DHT22;3548;48.402;9.990;2023-08-01T04:13:06;16.50;99.90
7016;DHT22;3548;48.402;9.990;2023-08-01T04:15:32;16.60;99.90
7016;DHT22;3548;48.402;9.990;2023-08-01T04:17:57;16.50;99.90
7016;DHT22;3548;48.402;9.990;2023-08-01T04:20:23;16.60;99.90
7016;DHT22;3548;48.402;9.990;2023-08-01T04:22:48;16.60;99.90
7016;DHT22;3548;48.402;9.990;2023-08-01T04:25:14;16.60;99.90
7016;DHT22;3548;48.402;9.990;2023-08-01T04:27:40;16.60;99.90
7016;DHT22;3548;48.402;9.990;2023-08-01T04:30:06;16.60;99.90
7016;DHT22;3548;48.402;9.990;2023-08-01T04:32:31;16.60;99.90
7016;DHT22;3548;48.402;9.990;2023-08-01T04:34:57;16.60;99.90
7016;DHT22;3548;48.402;9.990;2023-08-01T04:37:23;16.60;99.90
7016;DHT22;3548;48.402;9.990;2023-08-01T04:39:48;16.50;99.90
7016;DHT22;3548;48.402;9.990;2023-08-01T04:42:15;16.60;99.90
7016;DHT22;3548;48.402;9.990;2023-08-01T04:44:41;16.60;99.90
7016;DHT22;3548;48.402;9.990;2023-08-01T04:47:06;16.60;99.90
7016;DHT22;3548;48.402;9.990;2023-08-01T04:49:32;16.60;99.90
7016;DHT22;3548;48.402;9.990;2023-08-01T04:51:57;16.60;99.90
7016;DHT22;3548;48.402;9.990;2023-08-01T04:54:23;16.60;99.90
7016;DHT22;3548;48.402;9.990;2023-08-01T04:56:48;16.60;99.90
7016;DHT22;3548;48.402;9.990;2023-08-01T04:59:14;16.60;99.90
7016;DHT22;3548;48.402;9.990;2023-08-01T05:01:39;16.60;99.90
7016;DHT22;3548;48.402;9.990;2023-08-01T05:04:05;16.60;99.90
7016;DHT22;3548;48.402;9.990;2023-08-01T05:06:31;16.60;99.90
7016;DHT22;3548;48.402;9.990;2023-08-01T05:08:56;16.60;99.90
7016;DHT22;3548;48.402;9.990;2023-08-01T05:11:22;16.60;99.90
7016;DHT22;3548;48.402;9.990;2023-08-01T05:13:48;16.60;99.90
7016;DHT22;3548;48.402;9.990;2023-08-01T05:16:14;16.60;99.90
7016;DHT22;3548;48.402;9.990;2023-08-01T05:18:39;16.60;99.90
7016;DHT22;3548;48.402;9.990;2023-08-01T05:21:05;16.50;99.90
7016;DHT22;3548;48.402;9.990;2023-08-01T05:23:30;16.50;99.90
7016;DHT22;3548;48.402;9.990;2023-08-01T05:25:57;16.50;99.90
7016;DHT22;3548;48.402;9.990;2023-08-01T05:28:23;16.50;99.90
7016;DHT22;3548;48.402;9.990;2023-08-01T05:30:48;16.50;99.90
7016;DHT22;3548;48.402;9.990;2023-08-01T05:33:14;16.50;99.90
7016;DHT22;3548;48.402;9.990;2023-08-01T05:35:40;16.50;99.90
7016;DHT22;3548;48.402;9.990;2023-08-01T05:38:05;16.50;99.90
7016;DHT22;3548;48.402;9.990;2023-08-01T05:40:31;16.50;99.90
7016;DHT22;3548;48.402;9.990;2023-08-01T05:42:57;16.50;99.90
7016;DHT22;3548;48.402;9.990;2023-08-01T05:45:22;16.50;99.90
7016;DHT22;3548;48.402;9.990;2023-08-01T05:47:48;16.50;99.90
7016;DHT22;3548;48.402;9.990;2023-08-01T05:50:13;16.50;99.90
7016;DHT22;3548;48.402;9.990;2023-08-01T05:52:39;16.60;99.90
7016;DHT22;3548;48.402;9.990;2023-08-01T05:55:05;16.60;99.90
7016;DHT22;3548;48.402;9.990;2023-08-01T05:57:31;16.60;99.90
7016;DHT22;3548;48.402;9.990;2023-08-01T05:59:57;16.70;99.90
7016;DHT22;3548;48.402;9.990;2023-08-01T06:02:22;16.70;99.90
7016;DHT22;3548;48.402;9.990;2023-08-01T06:04:49;16.80;99.90
7016;DHT22;3548;48.402;9.990;2023-08-01T06:07:15;16.90;99.90
7016;DHT22;3548;48.402;9.990;2023-08-01T06:09:40;17.00;99.90
7016;DHT22;3548;48.402;9.990;2023-08-01T06:12:06;17.00;99.90
7016;DHT22;3548;48.402;9.990;2023-08-01T06:14:32;17.10;99.90
7016;DHT22;3548;48.402;9.990;2023-08-01T06:16:58;17.30;99.90
7016;DHT22;3548;48.402;9.990;2023-08-01T06:19:23;17.30;99.90
7016;DHT22;3548;48.402;9.990;2023-08-01T06:21:49;17.50;99.90
7016;DHT22;3548;48.402;9.990;2023-08-01T06:24:15;17.70;99.90
7016;DHT22;3548;48.402;9.990;2023-08-01T06:26:41;17.80;99.90
7016;DHT22;3548;48.402;9.990;2023-08-01T06:29:06;17.90;99.90
7016;DHT22;3548;48.402;9.990;2023-08-01T06:31:32;18.00;99.90
7016;DHT22;3548;48.402;9.990;2023-08-01T06:33:57;18.00;99.90
7016;DHT22;3548;48.402;9.990;2023-08-01T06:36:23;18.00;99.90
7016;DHT22;3548;48.402;9.990;2023-08-01T06:38:48;18.00;99.90
7016;DHT22;3548;48.402;9.990;2023-08-01T06:41:14;18.10;99.90
7016;DHT22;3548;48.402;9.990;2023-08-01T06:43:39;18.10;99.90
7016;DHT22;3548;48.402;9.990;2023-08-01T06:46:05;18.10;99.90
7016;DHT22;3548;48.402;9.990;2023-08-01T06:48:31;18.20;99.90
7016;DHT22;3548;48.402;9.990;2023-08-01T06:51:00;18.00;99.90
7016;DHT22;3548;48.402;9.990;2023-08-01T06:53:26;18.00;99.90
7016;DHT22;3548;48.402;9.990;2023-08-01T06:55:52;18.00;99.90
7016;DHT22;3548;48.402;9.990;2023-08-01T06:58:17;17.90;99.90
7016;DHT22;3548;48.402;9.990;2023-08-01T07:00:44;17.90;99.90
7016;DHT22;3548;48.402;9.990;2023-08-01T07:03:09;17.90;99.90
7016;DHT22;3548;48.402;9.990;2023-08-01T07:05:35;17.90;99.90
7016;DHT22;3548;48.402;9.990;2023-08-01T07:08:00;17.90;99.90
7016;DHT22;3548;48.402;9.990;2023-08-01T07:10:26;17.90;99.90
7016;DHT22;3548;48.402;9.990;2023-08-01T07:12:53;17.90;99.90
7016;DHT22;3548;48.402;9.990;2023-08-01T07:15:18;18.00;99.90
7016;DHT22;3548;48.402;9.990;2023-08-01T07:17:44;18.00;99.90
7016;DHT22;3548;48.402;9.990;2023-08-01T07:20:10;18.00;99.90
7016;DHT22;3548;48.402;9.990;2023-08-01T07:22:36;18.00;99.90
7016;DHT22;3548;48.402;9.990;2023-08-01T07:25:01;18.10;99.90
7016;DHT22;3548;48.402;9.990;2023-08-01T07:27:27;18.10;99.90
7016;DHT22;3548;48.402;9.990;2023-08-01T07:29:52;18.10;99.90
7016;DHT22;3548;48.402;9.990;2023-08-01T07:32:18;18.20;99.90
7016;DHT22;3548;48.402;9.990;2023-08-01T07:34:43;18.10;99.90
7016;DHT22;3548;48.402;9.990;2023-08-01T07:37:09;18.20;99.90
7016;DHT22;3548;48.402;9.990;2023-08-01T07:39:34;18.20;99.90
7016;DHT22;3548;48.402;9.990;2023-08-01T07:42:00;18.10;99.90
7016;DHT22;3548;48.402;9.990;2023-08-01T07:44:25;18.00;99.90
7016;DHT22;3548;48.402;9.990;2023-08-01T07:46:51;18.20;99.90
7016;DHT22;3548;48.402;9.990;2023-08-01T07:49:17;18.20;99.90
7016;DHT22;3548;48.402;9.990;2023-08-01T07:51:42;18.20;99.90
7016;DHT22;3548;48.402;9.990;2023-08-01T07:54:08;18.30;99.90
7016;DHT22;3548;48.402;9.990;2023-08-01T07:56:33;18.30;99.90
7016;DHT22;3548;48.402;9.990;2023-08-01T07:58:59;18.40;99.90
7016;DHT22;3548;48.402;9.990;2023-08-01T08:01:24;18.40;99.90
7016;DHT22;3548;48.402;9.990;2023-08-01T08:03:50;18.40;99.90
7016;DHT22;3548;48.402;9.990;2023-08-01T08:06:15;18.50;99.90
7016;DHT22;3548;48.402;9.990;2023-08-01T08:08:41;18.50;99.90
7016;DHT22;3548;48.402;9.990;2023-08-01T08:11:06;18.60;99.90
7016;DHT22;3548;48.402;9.990;2023-08-01T08:13:32;18.70;99.90
7016;DHT22;3548;48.402;9.990;2023-08-01T08:15:58;18.80;99.90
7016;DHT22;3548;48.402;9.990;2023-08-01T08:18:23;18.80;99.90
7016;DHT22;3548;48.402;9.990;2023-08-01T08:20:49;18.80;99.90
7016;DHT22;3548;48.402;9.990;2023-08-01T08:23:15;18.90;99.90
7016;DHT22;3548;48.402;9.990;2023-08-01T08:25:42;18.90;99.90
7016;DHT22;3548;48.402;9.990;2023-08-01T08:28:11;18.80;99.90
7016;DHT22;3548;48.402;9.990;2023-08-01T08:30:37;18.80;99.90
7016;DHT22;3548;48.402;9.990;2023-08-01T08:33:03;18.70;99.90
7016;DHT22;3548;48.402;9.990;2023-08-01T08:35:30;18.80;99.90
7016;DHT22;3548;48.402;9.990;2023-08-01T08:37:59;18.90;99.90
7016;DHT22;3548;48.402;9.990;2023-08-01T08:40:24;19.00;99.90
7016;DHT22;3548;48.402;9.990;2023-08-01T08:42:52;19.00;99.90
7016;DHT22;3548;48.402;9.990;2023-08-01T08:45:19;19.10;99.90
7016;DHT22;3548;48.402;9.990;2023-08-01T08:47:53;19.00;99.90
7016;DHT22;3548;48.402;9.990;2023-08-01T08:50:20;18.90;99.90
7016;DHT22;3548;48.402;9.990;2023-08-01T08:52:46;18.80;99.90
7016;DHT22;3548;48.402;9.990;2023-08-01T08:55:12;18.60;99.90
7016;DHT22;3548;48.402;9.990;2023-08-01T08:57:38;18.50;99.90
7016;DHT22;3548;48.402;9.990;2023-08-01T09:00:05;18.50;99.90
7016;DHT22;3548;48.402;9.990;2023-08-01T09:02:32;18.50;99.90
7016;DHT22;3548;48.402;9.990;2023-08-01T09:04:58;18.40;99.90
7016;DHT22;3548;48.402;9.990;2023-08-01T09:07:29;18.50;99.90
7016;DHT22;3548;48.402;9.990;2023-08-01T09:09:57;18.50;99.90
7016;DHT22;3548;48.402;9.990;2023-08-01T09:12:23;18.50;99.90
7016;DHT22;3548;48.402;9.990;2023-08-01T09:14:50;18.50;99.90
7016;DHT22;3548;48.402;9.990;2023-08-01T09:17:16;18.40;99.90
7016;DHT22;3548;48.402;9.990;2023-08-01T09:19:44;18.40;99.90
7016;DHT22;3548;48.402;9.990;2023-08-01T09:22:13;18.20;99.90
7016;DHT22;3548;48.402;9.990;2023-08-01T09:24:49;18.10;99.90
7016;DHT22;3548;48.402;9.990;2023-08-01T09:27:15;18.00;99.90
7016;DHT22;3548;48.402;9.990;2023-08-01T09:29:41;17.80;99.90
7016;DHT22;3548;48.402;9.990;2023-08-01T09:32:13;17.60;99.90
7016;DHT22;3548;48.402;9.990;2023-08-01T09:34:40;17.40;99.90
7016;DHT22;3548;48.402;9.990;2023-08-01T09:37:06;17.30;99.90
7016;DHT22;3548;48.402;9.990;2023-08-01T09:39:31;17.10;99.90
7016;DHT22;3548;48.402;9.990;2023-08-01T09:41:59;17.00;99.90
7016;DHT22;3548;48.402;9.990;2023-08-01T09:44:27;16.90;99.90
7016;DHT22;3548;48.402;9.990;2023-08-01T09:47:01;16.90;99.90
7016;DHT22;3548;48.402;9.990;2023-08-01T09:49:31;16.80;99.90
7016;DHT22;3548;48.402;9.990;2023-08-01T09:51:57;16.80;99.90
7016;DHT22;3548;48.402;9.990;2023-08-01T09:54:23;16.80;99.90
7016;DHT22;3548;48.402;9.990;2023-08-01T09:56:51;16.80;99.90
7016;DHT22;3548;48.402;9.990;2023-08-01T09:59:22;16.80;99.90
7016;DHT22;3548;48.402;9.990;2023-08-01T10:01:49;16.80;99.90
7016;DHT22;3548;48.402;9.990;2023-08-01T10:04:34;16.90;99.90
7016;DHT22;3548;48.402;9.990;2023-08-01T10:07:09;17.00;99.90
7016;DHT22;3548;48.402;9.990;2023-08-01T10:09:37;17.10;99.90
7016;DHT22;3548;48.402;9.990;2023-08-01T10:12:05;17.20;99.90
7016;DHT22;3548;48.402;9.990;2023-08-01T10:14:32;17.30;99.90
7016;DHT22;3548;48.402;9.990;2023-08-01T10:16:58;17.40;99.90
7016;DHT22;3548;48.402;9.990;2023-08-01T10:19:26;17.50;99.90
7016;DHT22;3548;48.402;9.990;2023-08-01T10:21:53;17.50;99.90
7016;DHT22;3548;48.402;9.990;2023-08-01T10:24:20;17.60;99.90
7016;DHT22;3548;48.402;9.990;2023-08-01T10:26:48;17.70;99.90
7016;DHT22;3548;48.402;9.990;2023-08-01T10:29:14;17.70;99.90
7016;DHT22;3548;48.402;9.990;2023-08-01T10:31:51;17.70;99.90
7016;DHT22;3548;48.402;9.990;2023-08-01T10:34:18;17.50;99.90
7016;DHT22;3548;48.402;9.990;2023-08-01T10:36:56;17.40;99.90
7016;DHT22;3548;48.402;9.990;2023-08-01T10:39:24;17.30;99.90
7016;DHT22;3548;48.402;9.990;2023-08-01T10:42:00;17.30;99.90
7016;DHT22;3548;48.402;9.990;2023-08-01T10:44:27;17.30;99.90
7016;DHT22;3548;48.402;9.990;2023-08-01T10:46:58;17.30;99.90
7016;DHT22;3548;48.402;9.990;2023-08-01T10:51:58;17.20;99.90
7016;DHT22;3548;48.402;9.990;2023-08-01T10:54:25;17.20;99.90
7016;DHT22;3548;48.402;9.990;2023-08-01T10:56:53;17.10;99.90
7016;DHT22;3548;48.402;9.990;2023-08-01T10:59:19;17.10;99.90
7016;DHT22;3548;48.402;9.990;2023-08-01T11:01:58;17.10;99.90
7016;DHT22;3548;48.402;9.990;2023-08-01T11:04:24;17.00;99.90
7016;DHT22;3548;48.402;9.990;2023-08-01T11:06:51;16.90;99.90
7016;DHT22;3548;48.402;9.990;2023-08-01T11:09:22;16.90;99.90
7016;DHT22;3548;48.402;9.990;2023-08-01T11:11:51;16.80;99.90
7016;DHT22;3548;48.402;9.990;2023-08-01T11:14:20;16.80;99.90
7016;DHT22;3548;48.402;9.990;2023-08-01T11:16:47;16.80;99.90
7016;DHT22;3548;48.402;9.990;2023-08-01T11:19:23;16.80;99.90
7016;DHT22;3548;48.402;9.990;2023-08-01T11:21:50;16.70;99.90
7016;DHT22;3548;48.402;9.990;2023-08-01T11:24:16;16.70;99.90
7016;DHT22;3548;48.402;9.990;2023-08-01T11:26:47;16.70;99.90
7016;DHT22;3548;48.402;9.990;2023-08-01T11:29:14;16.60;99.90
7016;DHT22;3548;48.402;9.990;2023-08-01T11:31:40;16.60;99.90
7016;DHT22;3548;48.402;9.990;2023-08-01T11:34:10;16.50;99.90
7016;DHT22;3548;48.402;9.990;2023-08-01T11:36:36;16.50;99.90
7016;DHT22;3548;48.402;9.990;2023-08-01T11:39:02;16.50;99.90
7016;DHT22;3548;48.402;9.990;2023-08-01T11:41:28;16.50;99.90
7016;DHT22;3548;48.402;9.990;2023-08-01T11:43:54;16.50;99.90
7016;DHT22;3548;48.402;9.990;2023-08-01T11:46:29;16.50;99.90
7016;DHT22;3548;48.402;9.990;2023-08-01T11:48:55;16.60;99.90
7016;DHT22;3548;48.402;9.990;2023-08-01T11:51:21;16.70;99.90
7016;DHT22;3548;48.402;9.990;2023-08-01T11:53:46;16.80;99.90
7016;DHT22;3548;48.402;9.990;2023-08-01T11:56:20;16.90;99.90
7016;DHT22;3548;48.402;9.990;2023-08-01T11:58:47;17.00;99.90
7016;DHT22;3548;48.402;9.990;2023-08-01T12:01:13;17.20;99.90
7016;DHT22;3548;48.402;9.990;2023-08-01T12:03:50;17.40;99.90
7016;DHT22;3548;48.402;9.990;2023-08-01T12:06:17;17.50;99.90
7016;DHT22;3548;48.402;9.990;2023-08-01T12:08:44;17.60;99.90
7016;DHT22;3548;48.402;9.990;2023-08-01T12:11:25;17.70;99.90
7016;DHT22;3548;48.402;9.990;2023-08-01T12:14:15;17.90;99.90
7016;DHT22;3548;48.402;9.990;2023-08-01T12:16:50;18.00;99.90
7016;DHT22;3548;48.402;9.990;2023-08-01T12:19:19;18.10;99.90
7016;DHT22;3548;48.402;9.990;2023-08-01T12:21:45;18.30;99.90
7016;DHT22;3548;48.402;9.990;2023-08-01T12:24:11;18.40;99.90
7016;DHT22;3548;48.402;9.990;2023-08-01T12:26:37;18.60;99.90
7016;DHT22;3548;48.402;9.990;2023-08-01T12:29:02;18.70;99.90
7016;DHT22;3548;48.402;9.990;2023-08-01T12:31:28;18.80;99.90
7016;DHT22;3548;48.402;9.990;2023-08-01T12:33:54;18.90;99.90
7016;DHT22;3548;48.402;9.990;2023-08-01T12:36:19;18.90;99.90
7016;DHT22;3548;48.402;9.990;2023-08-01T12:38:45;18.80;99.90
7016;DHT22;3548;48.402;9.990;2023-08-01T12:41:11;18.80;99.90
7016;DHT22;3548;48.402;9.990;2023-08-01T12:43:36;19.00;99.90
7016;DHT22;3548;48.402;9.990;2023-08-01T12:46:04;19.20;99.90
7016;DHT22;3548;48.402;9.990;2023-08-01T12:48:30;19.50;99.90
7016;DHT22;3548;48.402;9.990;2023-08-01T12:50:56;19.80;99.90
7016;DHT22;3548;48.402;9.990;2023-08-01T12:53:22;20.00;99.90
7016;DHT22;3548;48.402;9.990;2023-08-01T12:55:49;20.20;99.90
7016;DHT22;3548;48.402;9.990;2023-08-01T12:58:15;20.50;99.90
7016;DHT22;3548;48.402;9.990;2023-08-01T13:00:42;20.70;99.90
7016;DHT22;3548;48.402;9.990;2023-08-01T13:03:08;20.70;99.90
7016;DHT22;3548;48.402;9.990;2023-08-01T13:05:35;20.50;99.90
7016;DHT22;3548;48.402;9.990;2023-08-01T13:08:01;20.30;99.90
7016;DHT22;3548;48.402;9.990;2023-08-01T13:10:30;20.10;99.90
7016;DHT22;3548;48.402;9.990;2023-08-01T13:12:57;20.00;99.90
7016;DHT22;3548;48.402;9.990;2023-08-01T13:15:23;20.00;99.90
7016;DHT22;3548;48.402;9.990;2023-08-01T13:17:49;20.00;99.90
7016;DHT22;3548;48.402;9.990;2023-08-01T13:20:15;20.10;99.90
7016;DHT22;3548;48.402;9.990;2023-08-01T13:22:41;20.20;99.90
7016;DHT22;3548;48.402;9.990;2023-08-01T13:25:07;20.40;99.90
7016;DHT22;3548;48.402;9.990;2023-08-01T13:27:34;20.60;99.90
7016;DHT22;3548;48.402;9.990;2023-08-01T13:30:00;20.70;99.90
7016;DHT22;3548;48.402;9.990;2023-08-01T13:32:29;21.00;99.90
7016;DHT22;3548;48.402;9.990;2023-08-01T13:34:54;21.10;99.90
7016;DHT22;3548;48.402;9.990;2023-08-01T13:37:20;21.20;99.90
7016;DHT22;3548;48.402;9.990;2023-08-01T13:39:45;21.30;99.90
7016;DHT22;3548;48.402;9.990;2023-08-01T13:42:12;21.40;99.90
7016;DHT22;3548;48.402;9.990;2023-08-01T13:44:38;21.60;99.90
7016;DHT22;3548;48.402;9.990;2023-08-01T13:47:04;21.70;99.90
7016;DHT22;3548;48.402;9.990;2023-08-01T13:49:30;21.80;99.90
7016;DHT22;3548;48.402;9.990;2023-08-01T13:51:56;21.90;99.90
7016;DHT22;3548;48.402;9.990;2023-08-01T13:54:21;22.10;99.90
7016;DHT22;3548;48.402;9.990;2023-08-01T13:56:47;22.40;99.90
7016;DHT22;3548;48.402;9.990;2023-08-01T13:59:13;22.50;99.90
7016;DHT22;3548;48.402;9.990;2023-08-01T14:01:39;22.60;99.90
7016;DHT22;3548;48.402;9.990;2023-08-01T14:04:05;22.70;99.90
7016;DHT22;3548;48.402;9.990;2023-08-01T14:06:31;22.70;99.90
7016;DHT22;3548;48.402;9.990;2023-08-01T14:08:57;22.70;99.90
7016;DHT22;3548;48.402;9.990;2023-08-01T14:11:22;22.60;99.90
7016;DHT22;3548;48.402;9.990;2023-08-01T14:13:48;22.50;99.90
7016;DHT22;3548;48.402;9.990;2023-08-01T14:16:14;22.30;99.90
7016;DHT22;3548;48.402;9.990;2023-08-01T14:18:40;22.30;99.90
7016;DHT22;3548;48.402;9.990;2023-08-01T14:21:06;22.30;99.90
7016;DHT22;3548;48.402;9.990;2023-08-01T14:23:31;22.50;99.90
7016;DHT22;3548;48.402;9.990;2023-08-01T14:25:58;22.90;99.90
7016;DHT22;3548;48.402;9.990;2023-08-01T14:28:23;23.10;99.90
7016;DHT22;3548;48.402;9.990;2023-08-01T14:30:49;22.90;99.90
7016;DHT22;3548;48.402;9.990;2023-08-01T14:33:14;22.80;99.10
7016;DHT22;3548;48.402;9.990;2023-08-01T14:35:40;22.50;99.50
7016;DHT22;3548;48.402;9.990;2023-08-01T14:38:06;22.30;99.80
7016;DHT22;3548;48.402;9.990;2023-08-01T14:40:33;22.10;99.10
7016;DHT22;3548;48.402;9.990;2023-08-01T14:43:01;21.90;98.30
7016;DHT22;3548;48.402;9.990;2023-08-01T14:45:26;21.80;98.70
7016;DHT22;3548;48.402;9.990;2023-08-01T14:47:52;21.80;98.20
7016;DHT22;3548;48.402;9.990;2023-08-01T14:50:19;21.60;98.50
7016;DHT22;3548;48.402;9.990;2023-08-01T14:52:44;21.60;98.50
7016;DHT22;3548;48.402;9.990;2023-08-01T14:55:10;21.50;99.30
7016;DHT22;3548;48.402;9.990;2023-08-01T14:57:36;21.50;99.60
7016;DHT22;3548;48.402;9.990;2023-08-01T15:00:02;21.60;99.90
7016;DHT22;3548;48.402;9.990;2023-08-01T15:02:28;21.70;99.90
7016;DHT22;3548;48.402;9.990;2023-08-01T15:04:55;21.80;99.90
7016;DHT22;3548;48.402;9.990;2023-08-01T15:07:24;21.90;99.80
7016;DHT22;3548;48.402;9.990;2023-08-01T15:09:51;22.10;99.80
7016;DHT22;3548;48.402;9.990;2023-08-01T15:12:20;22.40;99.50
7016;DHT22;3548;48.402;9.990;2023-08-01T15:14:55;22.80;98.60
7016;DHT22;3548;48.402;9.990;2023-08-01T15:17:22;23.00;96.50
7016;DHT22;3548;48.402;9.990;2023-08-01T15:19:47;22.90;96.20
7016;DHT22;3548;48.402;9.990;2023-08-01T15:22:14;22.90;94.50
7016;DHT22;3548;48.402;9.990;2023-08-01T15:24:40;22.80;94.50
7016;DHT22;3548;48.402;9.990;2023-08-01T15:27:06;22.70;94.80
7016;DHT22;3548;48.402;9.990;2023-08-01T15:29:31;22.60;94.10
7016;DHT22;3548;48.402;9.990;2023-08-01T15:31:57;22.70;94.00
7016;DHT22;3548;48.402;9.990;2023-08-01T15:34:22;22.70;93.60
7016;DHT22;3548;48.402;9.990;2023-08-01T15:36:49;22.60;93.40
7016;DHT22;3548;48.402;9.990;2023-08-01T15:39:16;22.40;93.20
7016;DHT22;3548;48.402;9.990;2023-08-01T15:41:43;22.20;93.40
7016;DHT22;3548;48.402;9.990;2023-08-01T15:44:09;22.20;93.60
7016;DHT22;3548;48.402;9.990;2023-08-01T15:46:35;22.20;92.70
7016;DHT22;3548;48.402;9.990;2023-08-01T15:49:01;22.30;93.50
7016;DHT22;3548;48.402;9.990;2023-08-01T15:51:28;22.20;93.60
7016;DHT22;3548;48.402;9.990;2023-08-01T15:53:54;22.20;93.60
7016;DHT22;3548;48.402;9.990;2023-08-01T15:56:21;22.40;93.80
7016;DHT22;3548;48.402;9.990;2023-08-01T15:58:46;22.50;93.70